KATY/ATY METAR and TAF weather

Enter ICAO airport designator
Station Type Date Time Source
KATY METAR 2019/10/23 11:53 UTC NOAA

KATY 231153Z AUTO 00000KT 10SM OVC075 01/M01 A2981 RMK AO2 SLP109 T00061011 10006 21033 51010


Station Type Date Time Source
KATY Decoded METAR 2019/10/23 11:53 UTC NOAA

WATERTOWN MUNICIPAL AIRPORT, SD, United States (KATY) 44-54N 097-09W 532M
Oct 23, 2019 - 07:53 AM EDT / 2019.10.23 1153 UTC
Wind: Calm:0
Visibility: 10 mile(s):0
Sky conditions: overcast
Temperature: 33.1 F (0.6 C)
Dew Point: 30.0 F (-1.1 C)
Relative Humidity: 88%
Pressure (altimeter): 29.81 in. Hg (1009 hPa)
Pressure tendency: 0.03 inches (1.0 hPa) higher than three hours ago
ob: KATY 231153Z AUTO 00000KT 10SM OVC075 01/M01 A2981 RMK AO2 SLP109 T00061011 10006 21033 51010
cycle: 12

Station Type Date Time Source
KATY TAF 2019/10/23 12:22 UTC NOAA

TAF KATY 231120Z 2312/2412 VRB03KT P6SM OVC080
FM231400 36007KT P6SM VCSH OVC060
TEMPO 2315/2317 3SM -SN BKN030 OVC060
FM231700 01007KT P6SM FEW150
FM231900 34013KT P6SM OVC025
FM240300 30008KT P6SM SKC

Example: see airport list